This is the latest recevied weather packets stored in our database for station/object VK6DUG. If no packets are shown the sender has not sent any weather packets the latest 10 day(s).
| Time | Temp. | Humidity | Pressure | Rain* | Wind** | Luminosity | Snow |
|---|---|---|---|---|---|---|---|
| 1778042423 | 21.67° C | 55% | 1031.5 hPa | 0 mm | - | 550 W/m² | - |
| 1778041820 | 21.11° C | 56% | 1031.7 hPa | 0 mm | - | 546 W/m² | - |
| 1778041218 | 21.11° C | 56% | 1031.9 hPa | 0 mm | - | 542 W/m² | - |
| 1778040635 | 20.56° C | 57% | 1032 hPa | 0 mm | - | 538 W/m² | - |
| 1778040032 | 20.56° C | 59% | 1032.2 hPa | 0 mm | - | 536 W/m² | - |
| 1778039430 | 20.56° C | 59% | 1032.4 hPa | 0 mm | - | 537 W/m² | - |
| 1778038827 | 20° C | 60% | 1032.4 hPa | 0 mm | - | 538 W/m² | - |
| 1778038225 | 19.44° C | 61% | 1032.6 hPa | 0 mm | - | 533 W/m² | - |
| 1778037623 | 19.44° C | 61% | 1032.6 hPa | 0 mm | - | 523 W/m² | - |
| 1778037019 | 19.44° C | 62% | 1032.7 hPa | 0 mm | - | 507 W/m² | - |
| 1778036416 | 19.44° C | 61% | 1032.7 hPa | 0 mm | - | 487 W/m² | - |
| 1778035834 | 18.89° C | 64% | 1032.8 hPa | 0 mm | - | 472 W/m² | - |
| 1778035230 | 18.33° C | 64% | 1033 hPa | 0 mm | - | 459 W/m² | - |
| 1778034628 | 18.33° C | 64% | 1032.8 hPa | 0 mm | - | 442 W/m² | - |
| 1778034025 | 18.33° C | 65% | 1033 hPa | 0 mm | - | 418 W/m² | - |
| 1778033422 | 17.78° C | 67% | 1033 hPa | 0 mm | - | 394 W/m² | - |
| 1778032820 | 17.78° C | 68% | 1033.1 hPa | 0 mm | - | 368 W/m² | - |
| 1778032217 | 17.22° C | 69% | 1033.1 hPa | 0 mm | - | 341 W/m² | - |
| 1778031636 | 17.22° C | 70% | 1033 hPa | 0 mm | - | 315 W/m² | - |
| 1778031033 | 17.22° C | 70% | 1033 hPa | 0 mm | - | 284 W/m² | - |
| 1778030430 | 16.67° C | 71% | 1032.9 hPa | 0 mm | - | 251 W/m² | - |
| 1778029828 | 16.67° C | 72% | 1032.9 hPa | 0 mm | - | 224 W/m² | - |
| 1778029225 | 16.11° C | 74% | 1032.9 hPa | 0 mm | - | 204 W/m² | - |
| 1778028623 | 15.56° C | 75% | 1032.8 hPa | 0 mm | - | 176 W/m² | - |
| 1778028020 | 15.56° C | 76% | 1032.7 hPa | 0 mm | - | 145 W/m² | - |
* Rain latest hour (hover to see other rain measurements)
** Current wind speed in m/s (hover to see current wind gust speed)